Time;durP1;ratioP1;P1;durP2;ratioP2;P2;SDS_P1;SDS_P2;PMS_P1;PMS_P2;Temp;Humidity;BMP_temperature;BMP_pressure;BME280_temperature;BME280_humidity;BME280_pressure;Samples;Min_cycle;Max_cycle;Signal;HPM_P1;HPM_P2
2022/05/18 00:02:28;;;;;;;6.62;3.08;;;;;;;18.13;61.24;100745.87;5364906;32;34022;-70
2022/05/18 00:05:39;;;;;;;7.40;3.27;;;;;;;18.79;59.18;100743.34;5370755;32;35205;-73
2022/05/18 00:08:41;;;;;;;5.07;2.70;;;;;;;18.18;60.00;100753.56;5375805;32;43116;-72
2022/05/18 00:11:43;;;;;;;6.07;3.00;;;;;;;17.77;59.50;100753.53;5385304;32;35669;-69
2022/05/18 00:14:45;;;;;;;4.57;2.80;;;;;;;17.74;60.65;100756.41;5376610;32;34291;-74
2022/05/18 00:17:48;;;;;;;8.88;2.97;;;;;;;18.14;59.40;100755.53;5379554;32;35440;-73
2022/05/18 00:20:50;;;;;;;8.57;3.58;;;;;;;17.98;58.77;100761.97;5390281;32;34278;-70
2022/05/18 00:23:52;;;;;;;6.53;2.73;;;;;;;17.90;57.69;100756.25;5361077;32;33504;-73
2022/05/18 00:26:54;;;;;;;8.00;2.60;;;;;;;17.97;57.09;100757.56;5370701;32;35330;-70
2022/05/18 00:29:56;;;;;;;5.83;2.67;;;;;;;18.29;56.66;100748.41;5365030;32;34713;-70
2022/05/18 00:33:04;;;;;;;6.87;3.10;;;;;;;18.11;56.70;100761.06;5377455;32;35057;-74
2022/05/18 00:36:07;;;;;;;4.50;2.60;;;;;;;17.58;58.08;100764.44;5378824;32;34841;-74
2022/05/18 00:39:09;;;;;;;5.05;2.80;;;;;;;17.82;57.00;100762.94;5367076;32;34225;-74
2022/05/18 00:42:24;;;;;;;7.70;2.73;;;;;;;18.04;56.32;100762.44;5399314;32;45074;-73
2022/05/18 00:45:26;;;;;;;8.60;2.53;;;;;;;17.28;57.97;100770.69;5387793;32;34211;-69
2022/05/18 00:48:29;;;;;;;4.60;2.70;;;;;;;17.74;56.00;100767.03;5399162;32;34127;-69
2022/05/18 00:51:43;;;;;;;6.32;2.92;;;;;;;17.38;56.18;100775.44;5384629;32;34179;-73
2022/05/18 00:54:47;;;;;;;5.53;2.53;;;;;;;18.07;53.85;100774.66;5384212;32;44488;-68
2022/05/18 00:57:56;;;;;;;5.93;2.70;;;;;;;18.13;54.00;100774.28;5401910;32;34138;-69
2022/05/18 01:00:58;;;;;;;5.63;2.43;;;;;;;17.81;54.40;100779.84;5388024;32;35655;-68
2022/05/18 01:04:03;;;;;;;6.65;2.80;;;;;;;17.72;54.63;100782.22;5393179;32;34051;-69
2022/05/18 01:07:19;;;;;;;5.73;2.97;;;;;;;17.78;55.40;100790.66;5356861;32;35943;-69
2022/05/18 01:10:22;;;;;;;3.83;2.80;;;;;;;17.65;55.44;100797.66;5372231;32;34323;-74
2022/05/18 01:13:24;;;;;;;6.70;2.80;;;;;;;18.45;52.94;100797.94;5356664;32;34167;-73
2022/05/18 01:16:27;;;;;;;6.15;2.65;;;;;;;17.98;53.53;100804.50;5361655;32;34326;-73
2022/05/18 01:19:35;;;;;;;5.72;2.40;;;;;;;18.03;53.16;100800.63;5378063;32;35605;-70
2022/05/18 01:23:01;;;;;;;6.67;3.13;;;;;;;18.46;52.45;100808.47;5359409;32;34178;-72
2022/05/18 01:26:09;;;;;;;5.27;2.30;;;;;;;18.56;51.50;100809.59;5366616;32;35421;-74
2022/05/18 01:29:12;;;;;;;5.03;2.57;;;;;;;17.77;53.57;100810.22;5391963;32;45962;-70
2022/05/18 01:32:16;;;;;;;4.85;2.58;;;;;;;17.41;53.87;100809.81;5382544;32;34194;-69
2022/05/18 01:35:22;;;;;;;9.73;2.97;;;;;;;18.11;52.14;100811.62;5402739;32;35719;-69
2022/05/18 01:38:25;;;;;;;5.17;2.67;;;;;;;17.05;55.50;100814.56;5384657;32;35341;-68
2022/05/18 01:41:28;;;;;;;6.00;2.70;;;;;;;17.58;54.12;100818.47;5373471;32;35277;-69
2022/05/18 01:44:30;;;;;;;3.42;2.47;;;;;;;17.78;53.30;100817.25;5376656;32;35128;-68
2022/05/18 01:47:34;;;;;;;4.53;2.72;;;;;;;18.38;51.99;100819.63;5387075;32;35339;-71
2022/05/18 01:50:37;;;;;;;6.83;2.83;;;;;;;18.84;50.75;100821.97;5400966;32;34653;-73
2022/05/18 01:53:39;;;;;;;7.77;2.60;;;;;;;17.57;54.80;100821.19;5383804;32;35312;-73
2022/05/18 01:56:41;;;;;;;6.32;2.83;;;;;;;17.48;55.01;100827.94;5398035;32;48412;-73
2022/05/18 01:59:43;;;;;;;7.03;2.63;;;;;;;17.44;55.49;100834.38;5371427;32;35441;-68
2022/05/18 02:02:45;;;;;;;5.43;2.83;;;;;;;18.20;53.52;100828.78;5397968;32;34209;-73
2022/05/18 02:05:50;;;;;;;8.67;3.07;;;;;;;17.97;54.35;100830.25;5362946;32;34329;-69
2022/05/18 02:08:52;;;;;;;6.53;3.07;;;;;;;18.12;53.07;100845.25;5364629;32;35755;-72
2022/05/18 02:11:54;;;;;;;6.70;2.90;;;;;;;18.61;51.93;100847.44;5368517;32;34161;-68
2022/05/18 02:14:56;;;;;;;6.12;2.83;;;;;;;18.80;51.76;100847.06;5330720;32;35436;-69
2022/05/18 02:17:58;;;;;;;5.67;2.43;;;;;;;17.85;54.76;100846.97;5386152;32;35377;-74
2022/05/18 02:21:08;;;;;;;5.83;2.43;;;;;;;17.74;55.03;100855.59;5374474;32;34323;-72
2022/05/18 02:24:11;;;;;;;6.10;2.80;;;;;;;18.04;54.48;100854.66;5388541;32;43020;-72
2022/05/18 02:27:13;;;;;;;6.62;2.92;;;;;;;18.17;54.25;100863.56;5360964;32;35798;-68
2022/05/18 02:30:15;;;;;;;9.23;3.17;;;;;;;18.62;52.34;100864.25;5366880;32;35353;-73
2022/05/18 02:33:17;;;;;;;7.03;2.92;;;;;;;17.82;54.45;100877.25;5379763;32;34114;-73
2022/05/18 02:36:19;;;;;;;9.60;3.40;;;;;;;17.44;56.85;100873.38;5368438;32;34198;-71
2022/05/18 02:39:21;;;;;;;7.03;3.10;;;;;;;16.63;59.44;100886.03;5378864;32;35480;-69
2022/05/18 02:42:23;;;;;;;7.10;3.27;;;;;;;16.55;59.43;100891.78;5364966;32;34243;-74
2022/05/18 02:45:26;;;;;;;4.33;2.60;;;;;;;16.32;59.67;100895.69;5381815;32;35421;-70
2022/05/18 02:48:28;;;;;;;6.60;3.00;;;;;;;16.33;59.39;100899.22;5355418;32;35368;-70
2022/05/18 02:51:30;;;;;;;6.80;2.90;;;;;;;16.30;59.97;100899.38;5365063;32;35162;-69
2022/05/18 02:57:53;;;;;;;8.40;2.93;;;;;;;16.98;57.32;100906.16;5361739;32;34183;-68
2022/05/18 03:00:56;;;;;;;7.28;3.10;;;;;;;16.77;57.83;100910.88;5382381;32;34268;-68
2022/05/18 03:03:58;;;;;;;6.72;2.80;;;;;;;16.84;57.01;100918.50;5357745;32;34174;-73
2022/05/18 03:07:00;;;;;;;7.77;3.27;;;;;;;16.64;58.14;100920.44;5366622;32;34120;-73
2022/05/18 03:10:03;;;;;;;5.27;2.90;;;;;;;16.48;59.34;100927.53;5385397;32;35674;-74
2022/05/18 03:13:05;;;;;;;7.07;3.08;;;;;;;16.27;59.33;100934.88;5345137;32;33985;-69
2022/05/18 03:16:07;;;;;;;8.30;3.07;;;;;;;16.96;56.74;100941.72;5382083;32;34112;-69
2022/05/18 03:19:11;;;;;;;7.37;2.95;;;;;;;16.42;58.64;100946.44;5365705;32;34272;-73
2022/05/18 03:25:34;;;;;;;8.73;3.50;;;;;;;15.89;60.47;100952.81;5375909;32;34068;-72
2022/05/18 03:28:42;;;;;;;10.13;3.33;;;;;;;16.36;58.72;100957.38;5361050;32;34098;-73
2022/05/18 03:31:44;;;;;;;9.93;3.20;;;;;;;16.51;57.15;100967.19;5396046;32;44358;-74
2022/05/18 03:34:47;;;;;;;7.18;3.28;;;;;;;15.88;59.98;100970.50;5376091;32;34564;-68
2022/05/18 03:37:49;;;;;;;9.90;3.20;;;;;;;15.90;60.06;100971.28;5398064;32;35329;-69
2022/05/18 03:40:51;;;;;;;9.63;3.90;;;;;;;15.80;60.40;100974.50;5383307;32;34141;-72
2022/05/18 03:43:53;;;;;;;6.93;3.50;;;;;;;16.46;58.32;100980.69;5389995;32;34076;-69
2022/05/18 03:46:56;;;;;;;9.37;3.43;;;;;;;17.35;55.14;100986.37;5392497;32;34206;-69
2022/05/18 03:49:58;;;;;;;8.77;3.58;;;;;;;16.91;56.04;100995.06;5384781;32;34156;-72
2022/05/18 03:53:00;;;;;;;7.77;3.37;;;;;;;16.38;57.84;100997.97;5399324;32;35364;-69
2022/05/18 03:56:03;;;;;;;13.67;3.90;;;;;;;16.76;56.09;101007.41;5386087;32;34544;-73
2022/05/18 03:59:05;;;;;;;8.20;3.97;;;;;;;17.20;55.43;101009.38;5384872;32;34038;-73
2022/05/18 04:02:07;;;;;;;10.40;4.40;;;;;;;16.17;58.75;101024.69;5380396;32;35622;-69
2022/05/18 04:05:10;;;;;;;8.18;3.78;;;;;;;16.48;58.28;101029.22;5369036;32;34260;-73
2022/05/18 04:08:12;;;;;;;8.65;3.35;;;;;;;16.46;58.29;101027.59;5392924;32;45405;-69
2022/05/18 04:11:14;;;;;;;8.18;4.25;;;;;;;16.39;58.69;101039.47;5380919;32;37218;-68
2022/05/18 04:14:17;;;;;;;7.23;3.53;;;;;;;16.65;58.41;101035.41;5381753;32;36181;-69
2022/05/18 04:17:19;;;;;;;9.50;3.93;;;;;;;16.86;57.31;101054.66;5379401;32;34063;-69
2022/05/18 04:20:22;;;;;;;7.00;3.53;;;;;;;16.74;58.58;101053.53;5396146;32;34054;-73
2022/05/18 04:23:25;;;;;;;6.67;3.23;;;;;;;16.73;58.78;101067.75;5362581;32;35375;-73
2022/05/18 04:26:27;;;;;;;7.35;3.28;;;;;;;16.88;57.62;101066.06;5362932;32;34656;-70
2022/05/18 04:29:29;;;;;;;9.83;3.50;;;;;;;17.09;57.29;101075.50;5379804;32;35581;-68
2022/05/18 04:32:40;;;;;;;8.23;3.37;;;;;;;17.50;55.09;101074.97;5367122;32;34150;-69
2022/05/18 04:35:42;;;;;;;8.57;4.07;;;;;;;17.64;54.84;101076.84;5401973;32;44319;-69
2022/05/18 04:38:44;;;;;;;8.90;3.93;;;;;;;18.10;53.28;101083.03;5384336;32;34140;-69
2022/05/18 04:41:46;;;;;;;12.03;3.40;;;;;;;18.03;53.31;101086.97;5401724;32;35468;-74
2022/05/18 04:44:51;;;;;;;8.10;3.40;;;;;;;17.52;53.67;101099.69;5385931;32;35365;-69
2022/05/18 04:47:54;;;;;;;11.33;4.27;;;;;;;16.50;56.47;101103.44;5385426;32;34259;-68
2022/05/18 04:50:56;;;;;;;17.12;10.98;;;;;;;17.65;53.77;101099.84;5403066;32;35175;-68
2022/05/18 04:53:58;;;;;;;10.53;4.70;;;;;;;17.29;53.68;101112.44;5383915;32;34342;-74
2022/05/18 04:57:00;;;;;;;9.93;3.67;;;;;;;16.92;54.32;101121.56;5400734;32;35224;-73
2022/05/18 05:00:05;;;;;;;7.20;3.22;;;;;;;17.48;53.12;101124.72;5383547;32;34146;-70
2022/05/18 05:03:08;;;;;;;7.10;3.30;;;;;;;17.04;54.20;101125.34;5395420;32;36458;-73
2022/05/18 05:06:10;;;;;;;7.47;3.25;;;;;;;17.45;52.12;101133.72;5374639;32;46266;-70
2022/05/18 05:09:13;;;;;;;9.80;2.87;;;;;;;17.25;53.31;101128.63;5384308;32;34307;-68
2022/05/18 05:12:15;;;;;;;14.23;3.22;;;;;;;17.50;49.54;101154.69;5383861;32;34288;-68
2022/05/18 05:15:17;;;;;;;7.55;2.53;;;;;;;17.80;48.80;101158.34;5376810;32;35473;-68
2022/05/18 05:18:20;;;;;;;;;;;;;;;17.72;47.63;101159.72;5393523;32;35553;-76
2022/05/18 05:21:22;;;;;;;7.80;2.33;;;;;;;18.44;45.96;101168.84;5367084;32;35880;-71
2022/05/18 05:24:24;;;;;;;3.90;2.05;;;;;;;17.49;46.57;101176.91;5375617;32;34086;-72
2022/05/18 05:27:28;;;;;;;9.82;3.62;;;;;;;17.80;45.48;101187.59;5424410;27;34410;-96
2022/05/18 05:30:35;;;;;;;7.13;2.37;;;;;;;18.72;43.61;101181.38;5385542;32;35726;-95
2022/05/18 05:34:01;;;;;;;5.60;2.37;;;;;;;17.96;45.28;101189.34;5385525;32;44954;-96
2022/05/18 05:37:15;;;;;;;9.13;2.30;;;;;;;18.58;42.80;101177.69;5367557;32;44421;-96
2022/05/18 05:40:26;;;;;;;8.03;2.53;;;;;;;18.72;41.93;101208.84;5383804;32;32749;-95
2022/05/18 05:43:50;;;;;;;5.32;2.33;;;;;;;20.00;39.72;101207.94;5365077;32;33444;-95
2022/05/18 05:47:11;;;;;;;4.40;2.00;;;;;;;20.16;39.30;101211.34;5364494;32;35790;-96
2022/05/18 05:50:39;;;;;;;4.28;2.30;;;;;;;18.93;40.63;101230.66;5374180;32;45760;-96
2022/05/18 05:54:11;;;;;;;6.62;2.42;;;;;;;20.31;38.73;101228.12;5359987;32;45628;-96
2022/05/18 05:57:26;;;;;;;6.28;2.22;;;;;;;22.56;34.38;101228.22;5394641;32;35302;-96
2022/05/18 06:00:30;;;;;;;4.82;1.92;;;;;;;21.14;37.01;101242.09;5397805;32;34953;-96
2022/05/18 06:03:57;;;;;;;4.50;2.17;;;;;;;22.90;31.90;101246.13;5389586;32;35090;-96
2022/05/18 06:07:18;;;;;;;23.70;6.70;;;;;;;21.77;33.17;101245.69;5397463;32;35521;-96
2022/05/18 06:10:55;;;;;;;;;;;;;;;;;;;;;
2022/05/18 06:14:19;;;;;;;5.70;1.98;;;;;;;24.19;29.30;101255.47;5339474;27;34987;-93
2022/05/18 06:17:37;;;;;;;4.45;1.90;;;;;;;24.43;28.09;101260.69;5335292;32;33931;-95
2022/05/18 06:20:54;;;;;;;6.22;1.92;;;;;;;20.78;33.88;101272.19;5363972;32;44643;-96
2022/05/18 06:24:04;;;;;;;5.50;2.37;;;;;;;21.87;33.19;101265.44;5346579;32;34804;-96
2022/05/18 06:27:28;;;;;;;5.68;2.00;;;;;;;22.12;33.68;101268.06;5330464;32;33500;-96
2022/05/18 06:30:39;;;;;;;4.90;2.12;;;;;;;22.22;32.61;101283.44;5344539;32;33349;-96
2022/05/18 06:33:47;;;;;;;6.47;2.03;;;;;;;22.49;31.96;101296.62;5330583;32;45580;-96
2022/05/18 06:37:16;;;;;;;9.55;4.03;;;;;;;23.31;30.65;101295.66;5312950;32;33995;-96
2022/05/18 06:44:10;;;;;;;4.28;2.00;;;;;;;23.95;29.08;101305.81;5333494;32;34211;-96
2022/05/18 06:47:55;;;;;;;5.05;1.83;;;;;;;22.65;31.63;101314.09;5335138;32;35140;-95
2022/05/18 06:50:57;;;;;;;5.62;1.92;;;;;;;24.35;28.39;101308.84;5304474;32;33434;-73
2022/05/18 06:54:00;;;;;;;5.22;2.03;;;;;;;24.27;28.85;101317.47;5289635;32;34204;-68
2022/05/18 06:57:02;;;;;;;;;;;;;;;23.52;28.41;101328.87;5298656;32;34144;-70
2022/05/18 07:00:05;;;;;;;4.10;1.80;;;;;;;23.39;28.38;101327.28;5290343;32;34060;-67
2022/05/18 07:03:07;;;;;;;4.10;2.15;;;;;;;22.88;29.48;101333.84;5311482;32;35941;-69
2022/05/18 07:06:09;;;;;;;;;;;;;;;23.03;27.76;101347.03;5294742;32;34087;-67
2022/05/18 07:09:18;;;;;;;6.03;2.10;;;;;;;23.56;28.65;101342.03;5302354;32;44278;-70
2022/05/18 07:12:21;;;;;;;6.12;1.95;;;;;;;23.90;27.29;101357.22;5288149;32;35115;-70
2022/05/18 07:15:24;;;;;;;2.78;1.62;;;;;;;22.82;28.17;101361.06;5356857;32;34038;-71
2022/05/18 07:18:31;;;;;;;5.12;2.08;;;;;;;22.83;28.11;101369.97;5369848;32;33332;-68
2022/05/18 07:21:33;;;;;;;5.20;1.98;;;;;;;23.19;27.99;101371.72;5363749;32;34435;-72
2022/05/18 07:24:35;;;;;;;5.22;2.00;;;;;;;25.68;24.72;101370.13;5374215;32;34211;-69
2022/05/18 07:27:39;;;;;;;4.75;1.85;;;;;;;22.24;29.48;101385.94;5369110;32;34360;-78
2022/05/18 07:31:02;;;;;;;4.82;1.90;;;;;;;23.57;28.35;101376.81;5372351;32;34465;-71
2022/05/18 07:34:04;;;;;;;8.93;2.17;;;;;;;23.65;27.58;101381.59;5370294;32;34182;-71
2022/05/18 07:37:08;;;;;;;4.93;1.80;;;;;;;24.45;26.94;101376.09;5377756;32;35851;-76
2022/05/18 07:40:11;;;;;;;6.18;2.22;;;;;;;24.69;26.23;101382.13;5373471;32;32957;-72
2022/05/18 07:43:14;;;;;;;5.18;2.08;;;;;;;24.64;26.02;101387.03;5376901;32;44747;-86
2022/05/18 07:46:16;;;;;;;6.70;2.12;;;;;;;26.38;23.17;101388.16;5396511;32;37495;-79
2022/05/18 07:49:19;;;;;;;6.70;2.03;;;;;;;24.80;24.68;101381.25;5380945;32;35608;-69
2022/05/18 07:52:22;;;;;;;4.47;2.15;;;;;;;23.78;26.22;101396.63;5386180;32;36549;-69
2022/05/18 07:55:26;;;;;;;6.53;1.87;;;;;;;23.77;25.89;101400.28;5373961;32;35323;-79
2022/05/18 07:58:29;;;;;;;2.42;1.45;;;;;;;24.86;23.23;101394.19;5363042;32;33778;-71
2022/05/18 08:01:33;;;;;;;6.10;2.30;;;;;;;23.72;24.27;101399.78;5427948;27;34909;-89
2022/05/18 08:04:39;;;;;;;6.12;1.70;;;;;;;25.56;22.22;101398.12;5390206;32;34818;-94
2022/05/18 08:07:45;;;;;;;4.57;2.05;;;;;;;24.90;23.89;101402.84;5394951;32;44227;-96
2022/05/18 08:17:43;;;;;;;6.10;2.10;;;;;;;24.23;24.86;101431.53;5397497;32;33658;-93
2022/05/18 08:20:46;;;;;;;4.15;1.67;;;;;;;24.85;23.14;101436.31;5375238;32;45735;-93
2022/05/18 08:23:49;;;;;;;4.70;2.03;;;;;;;24.24;23.59;101444.00;5405100;32;34175;-93
2022/05/18 08:26:58;;;;;;;4.68;1.75;;;;;;;24.91;22.92;101444.88;5387410;32;33779;-96
2022/05/18 08:30:06;;;;;;;4.55;1.90;;;;;;;25.80;21.74;101440.94;5385752;32;34353;-92
2022/05/18 08:33:11;;;;;;;5.53;1.67;;;;;;;27.87;19.51;101428.38;5380153;32;34140;-93
2022/05/18 08:36:14;;;;;;;10.63;2.33;;;;;;;24.50;23.34;101454.50;5399807;32;44578;-92
2022/05/18 08:39:19;;;;;;;11.50;2.80;;;;;;;25.08;22.99;101453.28;5407374;32;35897;-95
2022/05/18 08:42:27;;;;;;;7.62;2.12;;;;;;;24.60;23.45;101442.00;5399125;32;33492;-92
2022/05/18 08:45:41;;;;;;;14.27;7.90;;;;;;;25.69;22.80;101451.75;5401910;32;34392;-96
2022/05/18 08:49:03;;;;;;;6.72;1.87;;;;;;;25.64;22.89;101442.25;5388155;32;34079;-94
2022/05/18 08:52:33;;;;;;;4.20;1.70;;;;;;;25.20;22.87;101454.09;5409971;32;34230;-92
2022/05/18 08:55:36;;;;;;;4.82;2.00;;;;;;;24.05;24.56;101458.03;5407952;32;34085;-90
2022/05/18 08:58:49;;;;;;;6.53;2.12;;;;;;;25.46;23.55;101459.12;5404685;32;33890;-96
2022/05/18 09:02:03;;;;;;;7.93;2.60;;;;;;;25.46;22.82;101457.28;5398022;32;33820;-93
2022/05/18 09:05:24;;;;;;;5.37;1.70;;;;;;;22.30;26.06;101472.06;5404449;32;36993;-93
2022/05/18 09:08:32;;;;;;;6.55;2.10;;;;;;;23.84;24.12;101457.03;5391625;32;33921;-92
2022/05/18 09:11:34;;;;;;;7.10;1.80;;;;;;;24.70;23.13;101469.88;5384072;32;35378;-94
2022/05/18 09:14:39;;;;;;;8.40;1.90;;;;;;;27.98;19.49;101464.19;5366271;32;35468;-93
2022/05/18 09:18:11;;;;;;;12.55;2.05;;;;;;;25.75;21.64;101454.81;5372874;32;43580;-95
2022/05/18 09:21:41;;;;;;;9.80;2.10;;;;;;;24.87;22.42;101468.50;5380405;32;44195;-93
2022/05/18 09:25:03;;;;;;;11.73;1.73;;;;;;;26.92;19.94;101462.38;5389439;27;44735;-69
2022/05/18 09:28:31;;;;;;;6.03;3.12;;;;;;;26.86;20.20;101457.56;5394240;32;35468;-78
2022/05/18 09:31:45;;;;;;;7.00;2.00;;;;;;;25.63;21.99;101461.22;5376120;32;34230;-74
2022/05/18 09:35:26;;;;;;;5.93;1.67;;;;;;;27.86;19.22;101448.31;5371722;32;44500;-71
2022/05/18 09:38:45;;;;;;;9.27;1.80;;;;;;;25.82;19.35;101465.91;5386565;32;35128;-71
2022/05/18 09:42:01;;;;;;;5.78;3.17;;;;;;;25.32;20.43;101463.84;5369512;32;44026;-76
2022/05/18 09:45:10;;;;;;;4.53;1.70;;;;;;;26.66;18.85;101471.97;5370428;32;34771;-69
2022/05/18 09:48:15;;;;;;;1.77;1.30;;;;;;;26.52;18.04;101458.88;5382366;32;44332;-70
2022/05/18 09:51:18;;;;;;;2.97;1.33;;;;;;;28.67;15.90;101451.25;5375660;32;35403;-74
2022/05/18 09:54:20;;;;;;;2.55;1.55;;;;;;;29.53;15.36;101455.16;5379565;32;35359;-73
2022/05/18 09:57:25;;;;;;;4.60;1.83;;;;;;;29.03;15.28;101458.41;5377861;32;35558;-77
2022/05/18 10:00:30;;;;;;;4.68;1.50;;;;;;;31.16;13.68;101458.62;5383082;32;35424;-68
2022/05/18 10:07:27;;;;;;;2.75;1.50;;;;;;;25.48;19.33;101473.28;5378352;32;35224;-69
2022/05/18 10:10:33;;;;;;;3.47;1.67;;;;;;;28.98;15.92;101460.75;5386411;32;36030;-66
2022/05/18 10:13:42;;;;;;;6.82;1.70;;;;;;;29.60;15.55;101471.63;5354283;32;36277;-69
2022/05/18 10:16:48;;;;;;;4.28;1.55;;;;;;;29.38;15.23;101460.28;5363499;32;46496;-67
2022/05/18 10:19:59;;;;;;;2.10;1.40;;;;;;;29.12;14.50;101459.38;5394036;32;34158;-68
2022/05/18 10:23:03;;;;;;;3.10;1.15;;;;;;;27.71;15.09;101472.22;5374969;32;35870;-66
2022/05/18 10:26:11;;;;;;;3.95;1.30;;;;;;;28.31;13.07;101476.31;5395757;32;34311;-73
2022/05/18 10:29:13;;;;;;;6.20;1.60;;;;;;;28.50;13.95;101464.56;5375953;32;44415;-67
2022/05/18 10:32:24;;;;;;;6.18;1.62;;;;;;;31.67;12.80;101448.47;5378218;32;35521;-67
2022/05/18 10:35:41;;;;;;;5.18;1.60;;;;;;;27.46;16.38;101452.06;5380946;32;32968;-69
2022/05/18 10:38:55;;;;;;;3.25;1.50;;;;;;;29.89;13.38;101445.09;5371427;32;44894;-67
2022/05/18 10:41:57;;;;;;;3.85;1.40;;;;;;;27.71;15.49;101459.56;5388604;32;34180;-69
2022/05/18 10:45:01;;;;;;;3.40;1.33;;;;;;;28.64;14.38;101457.81;5367705;32;35693;-71
2022/05/18 10:48:12;;;;;;;3.87;1.40;;;;;;;31.25;12.34;101445.94;5364830;32;33902;-71
2022/05/18 10:51:14;;;;;;;5.75;1.35;;;;;;;28.93;13.25;101440.56;5390122;32;44503;-73
2022/05/18 10:54:27;;;;;;;3.20;1.30;;;;;;;33.55;9.83;101433.91;5371469;32;34169;-68
2022/05/18 10:57:36;;;;;;;5.28;1.80;;;;;;;31.54;11.00;101429.97;5391107;32;34001;-70
2022/05/18 11:01:00;;;;;;;2.92;1.90;;;;;;;29.07;12.78;101432.75;5372882;32;34095;-66
2022/05/18 11:04:44;;;;;;;3.35;1.23;;;;;;;29.58;12.17;101441.16;5373540;32;35166;-82
2022/05/18 11:07:46;;;;;;;5.00;1.30;;;;;;;30.09;11.66;101434.03;5331253;32;34282;-72
2022/05/18 11:11:09;;;;;;;7.50;1.50;;;;;;;29.56;12.13;101422.38;5373494;32;34000;-73
2022/05/18 11:14:38;;;;;;;4.62;1.10;;;;;;;29.06;12.51;101408.56;5335542;32;44439;-81
2022/05/18 11:17:51;;;;;;;2.40;0.98;;;;;;;29.16;10.92;101413.88;5378486;32;33926;-67
2022/05/18 11:21:17;;;;;;;3.42;1.10;;;;;;;29.95;10.21;101419.22;5379036;32;35541;-73
2022/05/18 11:24:34;;;;;;;2.12;1.20;;;;;;;28.55;11.61;101424.41;5384518;32;43346;-68
2022/05/18 11:28:06;;;;;;;3.03;1.20;;;;;;;27.83;12.33;101433.25;5375607;32;34228;-70
2022/05/18 11:31:08;;;;;;;4.12;1.30;;;;;;;27.45;12.50;101418.81;5371053;32;35057;-72
2022/05/18 11:34:24;;;;;;;4.55;1.27;;;;;;;26.64;13.60;101410.09;5379828;32;43631;-66
2022/05/18 11:37:45;;;;;;;3.05;1.42;;;;;;;26.51;13.67;101420.28;5380406;32;35666;-68
2022/05/18 11:41:42;;;;;;;2.80;1.27;;;;;;;30.85;11.10;101403.28;5385843;32;43288;-72
2022/05/18 11:45:14;;;;;;;6.22;1.30;;;;;;;30.76;11.40;101405.12;5331121;32;34191;-70
2022/05/18 11:48:28;;;;;;;;;;;;;;;30.48;12.40;101407.25;5356569;32;44592;-71
2022/05/18 11:51:45;;;;;;;1.12;0.85;;;;;;;31.16;11.75;101414.34;5380502;32;34263;-69
2022/05/18 11:55:10;;;;;;;4.47;1.35;;;;;;;30.83;9.74;101410.75;5378688;32;43173;-72
2022/05/18 11:58:41;;;;;;;3.28;1.15;;;;;;;33.54;8.66;101394.91;5371586;32;44379;-71
2022/05/18 12:01:51;;;;;;;3.17;1.10;;;;;;;33.59;8.85;101397.09;5386788;32;45960;-72
2022/05/18 12:05:06;;;;;;;7.03;2.03;;;;;;;30.56;11.85;101406.44;5372287;32;36364;-71
2022/05/18 12:08:31;;;;;;;4.10;1.00;;;;;;;31.64;11.50;101404.50;5361903;32;34362;-72
2022/05/18 12:11:58;;;;;;;2.90;1.10;;;;;;;29.10;8.52;101407.22;5372751;32;32526;-68
2022/05/18 12:15:27;;;;;;;6.00;1.92;;;;;;;30.91;6.70;101397.19;5367845;32;34402;-79
2022/05/18 12:18:47;;;;;;;3.50;0.95;;;;;;;28.38;8.37;101421.66;5371969;32;35626;-77
2022/05/18 12:21:56;;;;;;;0.90;0.65;;;;;;;27.89;7.67;101421.88;5382262;32;44650;-80
2022/05/18 12:24:59;;;;;;;10.65;3.97;;;;;;;26.23;8.26;101416.50;5364604;32;32992;-72
2022/05/18 12:28:03;;;;;;;1.45;0.90;;;;;;;27.50;8.45;101407.53;5393329;32;34169;-70
2022/05/18 12:31:06;;;;;;;0.77;0.68;;;;;;;24.91;10.01;101416.16;5370299;32;34284;-72
2022/05/18 12:34:11;;;;;;;;;;;;;;;24.18;9.77;101422.12;5370952;32;34204;-71
2022/05/18 12:37:13;;;;;;;1.17;0.60;;;;;;;24.84;9.42;101410.44;5371639;32;46558;-74
2022/05/18 12:40:15;;;;;;;2.87;0.80;;;;;;;25.57;9.09;101416.00;5370709;32;35395;-73
2022/05/18 12:43:31;;;;;;;3.03;0.88;;;;;;;23.27;10.81;101430.13;5387577;32;34630;-74
2022/05/18 12:46:37;;;;;;;1.52;0.60;;;;;;;23.28;10.73;101434.53;5379567;32;35184;-73
2022/05/18 12:49:42;;;;;;;3.10;1.08;;;;;;;24.62;9.64;101426.63;5379990;32;33973;-74
2022/05/18 12:52:50;;;;;;;15.50;12.30;;;;;;;24.29;9.90;101435.56;5363488;32;45322;-74
2022/05/18 12:56:07;;;;;;;1.37;0.70;;;;;;;24.14;9.79;101434.94;5375198;32;35450;-78
2022/05/18 12:59:13;;;;;;;1.48;0.70;;;;;;;23.27;10.46;101424.78;5394254;32;34062;-71
2022/05/18 13:02:20;;;;;;;0.93;0.82;;;;;;;24.35;9.91;101428.88;5379509;32;44336;-81
2022/05/18 13:05:26;;;;;;;1.75;1.10;;;;;;;23.35;10.67;101433.09;5387509;32;35417;-71
2022/05/18 13:08:32;;;;;;;4.28;0.88;;;;;;;23.28;9.98;101427.34;5375910;32;33999;-74
2022/05/18 13:11:47;;;;;;;1.55;0.98;;;;;;;23.74;9.66;101429.19;5370015;32;34198;-80
2022/05/18 13:15:37;;;;;;;1.48;0.80;;;;;;;23.84;9.71;101424.81;5383519;32;34627;-73
2022/05/18 13:18:39;;;;;;;3.22;1.20;;;;;;;22.60;9.74;101426.09;5384461;32;35549;-74
2022/05/18 13:21:46;;;;;;;;;;;;;;;22.41;10.04;101423.06;5381434;32;44398;-72
2022/05/18 13:24:57;;;;;;;1.85;0.73;;;;;;;24.39;9.27;101419.59;5380528;32;34771;-76
2022/05/18 13:28:01;;;;;;;2.37;1.00;;;;;;;24.00;9.61;101405.66;5360727;32;34375;-72
2022/05/18 13:31:05;;;;;;;4.57;1.20;;;;;;;23.48;11.87;101420.44;5388021;32;34233;-77
2022/05/18 13:34:20;;;;;;;5.57;1.20;;;;;;;23.37;11.99;101420.41;5377419;32;44969;-85
2022/05/18 13:37:23;;;;;;;2.40;1.37;;;;;;;24.50;11.14;101416.87;5408470;32;31801;-70
2022/05/18 13:40:49;;;;;;;2.60;0.90;;;;;;;23.37;12.51;101420.41;5392740;32;45377;-69
2022/05/18 13:43:52;;;;;;;2.78;1.05;;;;;;;23.58;12.13;101410.72;5370168;32;34282;-78
2022/05/18 13:46:56;;;;;;;5.20;1.27;;;;;;;24.54;11.55;101405.78;5370786;32;34822;-75
2022/05/18 13:50:05;;;;;;;2.62;1.10;;;;;;;23.61;12.21;101407.81;5374200;32;32527;-76
2022/05/18 13:53:12;;;;;;;4.37;1.30;;;;;;;23.23;12.48;101414.25;5383151;32;33483;-80
2022/05/18 13:56:21;;;;;;;2.47;0.90;;;;;;;23.99;12.20;101409.31;5379553;32;45117;-80
2022/05/18 13:59:30;;;;;;;1.17;0.70;;;;;;;23.13;12.24;101407.91;5369652;32;34196;-80
2022/05/18 14:02:35;;;;;;;3.20;0.77;;;;;;;22.70;12.47;101404.88;5392016;32;35406;-78
2022/05/18 14:05:39;;;;;;;2.53;1.17;;;;;;;24.45;11.29;101403.81;5382695;32;35205;-72
2022/05/18 14:08:43;;;;;;;5.30;3.33;;;;;;;24.56;10.93;101397.56;5389341;32;44660;-85
2022/05/18 14:11:55;;;;;;;1.65;0.82;;;;;;;24.37;10.69;101392.84;5373905;32;34127;-79
2022/05/18 14:14:57;;;;;;;3.45;1.42;;;;;;;23.63;12.51;101400.50;5376167;32;35345;-79
2022/05/18 14:18:26;;;;;;;1.77;0.90;;;;;;;24.34;11.98;101393.06;5387511;32;45136;-77
2022/05/18 14:21:40;;;;;;;2.05;1.17;;;;;;;23.39;12.46;101402.38;5372597;32;36490;-87
2022/05/18 14:24:52;;;;;;;3.72;1.10;;;;;;;23.27;12.62;101397.97;5382312;32;44376;-85
2022/05/18 14:27:56;;;;;;;3.17;0.90;;;;;;;23.23;12.95;101403.53;5373762;32;35287;-84
2022/05/18 14:31:00;;;;;;;4.40;1.65;;;;;;;22.79;13.20;101393.44;5373936;32;34702;-80
2022/05/18 14:34:07;;;;;;;3.85;1.40;;;;;;;22.90;13.34;101400.72;5397949;32;35152;-74
2022/05/18 14:37:12;;;;;;;6.75;1.20;;;;;;;23.34;13.27;101399.19;5372350;32;34845;-83
2022/05/18 14:40:20;;;;;;;2.80;1.20;;;;;;;22.76;13.15;101399.06;5400761;32;44333;-74
2022/05/18 14:43:27;;;;;;;1.62;0.88;;;;;;;23.33;13.30;101397.50;5374759;32;35751;-75
2022/05/18 14:46:32;;;;;;;3.28;0.90;;;;;;;23.29;12.54;101396.00;5393233;32;34535;-74
2022/05/18 14:49:36;;;;;;;5.60;1.83;;;;;;;22.51;13.23;101397.31;5395650;32;35681;-90
2022/05/18 14:53:03;;;;;;;1.08;0.80;;;;;;;23.05;13.29;101404.94;5390525;32;35255;-89
2022/05/18 14:56:07;;;;;;;3.08;1.40;;;;;;;22.90;13.11;101398.06;5402179;32;37260;-74
2022/05/18 14:59:12;;;;;;;3.47;0.90;;;;;;;24.64;12.14;101400.47;5391332;32;35041;-87
2022/05/18 15:02:15;;;;;;;3.25;1.15;;;;;;;24.70;11.89;101391.06;5373408;32;44347;-84
2022/05/18 15:05:23;;;;;;;2.25;0.95;;;;;;;23.37;13.01;101404.31;5385805;32;35509;-84